Aérodrome :
LOGIN :

S'inscrire | Disclaimer

   EN    FR    IT 

 










Légende :    VFR   VFR Marginal   IFR   IFR Intensif   IFR Très Intensif
Visi : 
Plafond : 
>= 8 km
>= 3000ft
5 à 8 km
1000 à 3000 ft
1500m à 5 km
500 à 1000 ft
800 à 1500m
200 à 500 ft
< 800m
< 200 ft
Symboles :   Orages  Brouillard  Fortes neiges  Fortes précipitations  Vent > 20 kt
SIGMETs :   Divers  Orages  Givrage  Turbulence  Onde Orograph.  Cendres Volcan.







- Altitude de l'aérodrome : 1300 ft
- Code IATA : LIG
- Voir les cartes d'approche


LFBL - Limoges

DERNIER METAR :
  • 101330Z AUTO 27005KT 9999 SCT013 BKN018 BKN025 08/05 Q1030 NOSIG

METARs EXPIRÉS :
  • 101300Z AUTO 27005KT 240V320 9999 SCT012 SCT021 BKN026 08/05 Q1030 NOSIG
  • 101230Z AUTO 27004KT 230V300 9999 BKN012 OVC018 08/06 Q1030 BECMG BKN020
  • 101200Z AUTO 25004KT 210V290 9999 BKN007 OVC011 07/06 Q1030 BECMG BKN020
  • 101130Z AUTO 27004KT 220V300 9999 OVC006 06/06 Q1031 BECMG BKN020
  • 101100Z AUTO 26004KT 8000 2600 OVC003 06/05 Q1031 BECMG BKN025

TAF AMD TAF LFBL
Valide du 10 à 12h jusqu'au 11 à 12h UTC


101201Z 1012/1112 33006KT 9999 BKN007
BECMG 1012/1014 BKN020
BECMG 1020/1022 VRB02KT 4500 BR
TEMPO 1022/1107 0600 FG VV///
PROB30
TEMPO 1100/1107 0300 FG VV///
BECMG 1109/1111 9999 NSW SCT010
ATIS : +33 5 55 48 40 37
Pas de NOTAMs connus pour ce terrain.



MET'MAP, la Météo Aéronautique d'un coup d'oeil ! - Copyright ORBIFLY Décembre 2007 - Disclaimer

ORBIFLY MET'MAP TEAM :

Programmation & Développement : Alexandra Zaïnal
Conception & Développement : Baudouin d'Aumeries
Co-Programmation & Développement : Marc-Olivier Méhu
Soutien technique & logistique : Manuel Goepfert

Contact : metmap@orbifly.com




SOURCES & CREDITS :

   NOAA